sensor_id;sensor_type;location;lat;lon;timestamp;temperature;humidity
50548;DHT22;38013;48.810;8.818;2023-05-20T00:02:23;12.80;69.80
50548;DHT22;38013;48.810;8.818;2023-05-20T00:04:50;12.80;69.80
50548;DHT22;38013;48.810;8.818;2023-05-20T00:07:17;12.70;69.70
50548;DHT22;38013;48.810;8.818;2023-05-20T00:09:44;12.80;69.80
50548;DHT22;38013;48.810;8.818;2023-05-20T00:12:11;12.70;69.80
50548;DHT22;38013;48.810;8.818;2023-05-20T00:14:38;12.70;69.80
50548;DHT22;38013;48.810;8.818;2023-05-20T00:17:05;12.70;70.00
50548;DHT22;38013;48.810;8.818;2023-05-20T00:19:32;12.70;70.00
50548;DHT22;38013;48.810;8.818;2023-05-20T00:21:59;12.70;70.00
50548;DHT22;38013;48.810;8.818;2023-05-20T00:24:26;12.60;70.00
50548;DHT22;38013;48.810;8.818;2023-05-20T00:26:54;12.60;70.00
50548;DHT22;38013;48.810;8.818;2023-05-20T00:29:21;12.60;70.00
50548;DHT22;38013;48.810;8.818;2023-05-20T00:31:48;12.60;70.10
50548;DHT22;38013;48.810;8.818;2023-05-20T00:34:15;12.60;70.10
50548;DHT22;38013;48.810;8.818;2023-05-20T00:36:43;12.60;70.10
50548;DHT22;38013;48.810;8.818;2023-05-20T00:39:10;12.60;70.10
50548;DHT22;38013;48.810;8.818;2023-05-20T00:41:37;12.60;70.20
50548;DHT22;38013;48.810;8.818;2023-05-20T00:44:04;12.60;70.20
50548;DHT22;38013;48.810;8.818;2023-05-20T00:46:32;12.60;70.30
50548;DHT22;38013;48.810;8.818;2023-05-20T00:48:59;12.60;70.40
50548;DHT22;38013;48.810;8.818;2023-05-20T00:51:27;12.60;70.40
50548;DHT22;38013;48.810;8.818;2023-05-20T00:53:54;12.60;70.50
50548;DHT22;38013;48.810;8.818;2023-05-20T00:56:23;12.60;70.50
50548;DHT22;38013;48.810;8.818;2023-05-20T00:58:52;12.60;70.50
50548;DHT22;38013;48.810;8.818;2023-05-20T01:01:19;12.60;70.40
50548;DHT22;38013;48.810;8.818;2023-05-20T01:03:46;12.60;70.40
50548;DHT22;38013;48.810;8.818;2023-05-20T01:06:15;12.70;70.60
50548;DHT22;38013;48.810;8.818;2023-05-20T01:08:42;12.70;70.60
50548;DHT22;38013;48.810;8.818;2023-05-20T01:11:36;12.70;70.70
50548;DHT22;38013;48.810;8.818;2023-05-20T01:14:07;12.70;71.50
50548;DHT22;38013;48.810;8.818;2023-05-20T01:16:35;12.70;70.60
50548;DHT22;38013;48.810;8.818;2023-05-20T01:19:02;12.80;70.70
50548;DHT22;38013;48.810;8.818;2023-05-20T01:21:33;12.80;70.60
50548;DHT22;38013;48.810;8.818;2023-05-20T01:24:00;12.80;70.50
50548;DHT22;38013;48.810;8.818;2023-05-20T01:26:29;12.80;70.60
50548;DHT22;38013;48.810;8.818;2023-05-20T01:28:56;12.90;70.60
50548;DHT22;38013;48.810;8.818;2023-05-20T01:31:24;12.90;70.70
50548;DHT22;38013;48.810;8.818;2023-05-20T01:33:55;12.90;70.70
50548;DHT22;38013;48.810;8.818;2023-05-20T01:36:25;12.90;70.60
50548;DHT22;38013;48.810;8.818;2023-05-20T01:38:53;13.00;70.70
50548;DHT22;38013;48.810;8.818;2023-05-20T01:41:23;13.10;70.70
50548;DHT22;38013;48.810;8.818;2023-05-20T01:43:52;13.10;70.80
50548;DHT22;38013;48.810;8.818;2023-05-20T01:46:21;13.10;70.70
50548;DHT22;38013;48.810;8.818;2023-05-20T01:48:49;13.20;70.70
50548;DHT22;38013;48.810;8.818;2023-05-20T01:51:16;13.20;70.80
50548;DHT22;38013;48.810;8.818;2023-05-20T01:53:43;13.20;70.90
50548;DHT22;38013;48.810;8.818;2023-05-20T01:56:10;13.30;70.80
50548;DHT22;38013;48.810;8.818;2023-05-20T01:58:37;13.30;70.90
50548;DHT22;38013;48.810;8.818;2023-05-20T02:01:05;13.30;70.90
50548;DHT22;38013;48.810;8.818;2023-05-20T02:03:32;13.40;70.90
50548;DHT22;38013;48.810;8.818;2023-05-20T02:05:59;13.50;71.00
50548;DHT22;38013;48.810;8.818;2023-05-20T02:08:25;13.50;70.90
50548;DHT22;38013;48.810;8.818;2023-05-20T02:10:53;13.50;70.80
50548;DHT22;38013;48.810;8.818;2023-05-20T02:13:19;13.60;70.80
50548;DHT22;38013;48.810;8.818;2023-05-20T02:15:47;13.60;70.70
50548;DHT22;38013;48.810;8.818;2023-05-20T02:18:14;13.60;70.70
50548;DHT22;38013;48.810;8.818;2023-05-20T02:20:44;13.70;70.70
50548;DHT22;38013;48.810;8.818;2023-05-20T02:23:11;13.70;70.40
50548;DHT22;38013;48.810;8.818;2023-05-20T02:25:37;13.70;70.60
50548;DHT22;38013;48.810;8.818;2023-05-20T02:28:06;13.80;70.60
50548;DHT22;38013;48.810;8.818;2023-05-20T02:30:37;13.70;70.50
50548;DHT22;38013;48.810;8.818;2023-05-20T02:33:04;13.70;70.50
50548;DHT22;38013;48.810;8.818;2023-05-20T02:35:32;13.70;70.40
50548;DHT22;38013;48.810;8.818;2023-05-20T02:38:00;13.70;70.30
50548;DHT22;38013;48.810;8.818;2023-05-20T02:40:27;13.70;70.30
50548;DHT22;38013;48.810;8.818;2023-05-20T02:42:54;13.80;70.30
50548;DHT22;38013;48.810;8.818;2023-05-20T02:45:22;13.80;70.20
50548;DHT22;38013;48.810;8.818;2023-05-20T02:47:49;13.70;70.10
50548;DHT22;38013;48.810;8.818;2023-05-20T02:50:16;13.80;70.10
50548;DHT22;38013;48.810;8.818;2023-05-20T02:52:43;13.80;70.10
50548;DHT22;38013;48.810;8.818;2023-05-20T02:55:11;13.80;70.20
50548;DHT22;38013;48.810;8.818;2023-05-20T02:57:38;13.80;70.10
50548;DHT22;38013;48.810;8.818;2023-05-20T03:00:08;13.80;70.10
50548;DHT22;38013;48.810;8.818;2023-05-20T03:02:39;13.90;70.10
50548;DHT22;38013;48.810;8.818;2023-05-20T03:05:06;13.80;70.10
50548;DHT22;38013;48.810;8.818;2023-05-20T03:07:34;13.80;70.10
50548;DHT22;38013;48.810;8.818;2023-05-20T03:10:02;13.80;70.00
50548;DHT22;38013;48.810;8.818;2023-05-20T03:12:30;13.90;70.10
50548;DHT22;38013;48.810;8.818;2023-05-20T03:14:57;13.90;70.10
50548;DHT22;38013;48.810;8.818;2023-05-20T03:17:26;13.90;70.20
50548;DHT22;38013;48.810;8.818;2023-05-20T03:19:53;13.90;70.20
50548;DHT22;38013;48.810;8.818;2023-05-20T03:22:21;13.90;70.40
50548;DHT22;38013;48.810;8.818;2023-05-20T03:24:48;13.90;70.40
50548;DHT22;38013;48.810;8.818;2023-05-20T03:27:15;13.90;70.40
50548;DHT22;38013;48.810;8.818;2023-05-20T03:29:42;13.90;70.40
50548;DHT22;38013;48.810;8.818;2023-05-20T03:32:09;14.00;70.40
50548;DHT22;38013;48.810;8.818;2023-05-20T03:34:36;14.00;70.40
50548;DHT22;38013;48.810;8.818;2023-05-20T03:37:04;14.00;70.30
50548;DHT22;38013;48.810;8.818;2023-05-20T03:39:31;14.00;70.50
50548;DHT22;38013;48.810;8.818;2023-05-20T03:41:59;14.00;70.50
50548;DHT22;38013;48.810;8.818;2023-05-20T03:44:26;14.10;70.50
50548;DHT22;38013;48.810;8.818;2023-05-20T03:46:53;14.10;70.50
50548;DHT22;38013;48.810;8.818;2023-05-20T03:49:21;14.10;70.60
50548;DHT22;38013;48.810;8.818;2023-05-20T03:51:48;14.10;70.60
50548;DHT22;38013;48.810;8.818;2023-05-20T03:54:15;14.10;70.60
50548;DHT22;38013;48.810;8.818;2023-05-20T03:56:47;14.10;70.70
50548;DHT22;38013;48.810;8.818;2023-05-20T03:59:15;14.10;70.60
50548;DHT22;38013;48.810;8.818;2023-05-20T04:01:42;14.20;70.60
50548;DHT22;38013;48.810;8.818;2023-05-20T04:04:09;14.10;70.60
50548;DHT22;38013;48.810;8.818;2023-05-20T04:06:36;14.20;70.70
50548;DHT22;38013;48.810;8.818;2023-05-20T04:09:03;14.20;70.70
50548;DHT22;38013;48.810;8.818;2023-05-20T04:11:30;14.20;70.80
50548;DHT22;38013;48.810;8.818;2023-05-20T04:13:57;14.20;70.70
50548;DHT22;38013;48.810;8.818;2023-05-20T04:16:25;14.30;70.80
50548;DHT22;38013;48.810;8.818;2023-05-20T04:18:52;14.30;70.80
50548;DHT22;38013;48.810;8.818;2023-05-20T04:21:20;14.30;70.80
50548;DHT22;38013;48.810;8.818;2023-05-20T04:23:47;14.30;70.80
50548;DHT22;38013;48.810;8.818;2023-05-20T04:26:14;14.40;70.80
50548;DHT22;38013;48.810;8.818;2023-05-20T04:28:41;14.40;70.80
50548;DHT22;38013;48.810;8.818;2023-05-20T04:31:08;14.50;70.70
50548;DHT22;38013;48.810;8.818;2023-05-20T04:33:37;14.50;70.70
50548;DHT22;38013;48.810;8.818;2023-05-20T04:36:10;14.50;70.50
50548;DHT22;38013;48.810;8.818;2023-05-20T04:38:38;14.60;70.70
50548;DHT22;38013;48.810;8.818;2023-05-20T04:41:06;14.60;70.20
50548;DHT22;38013;48.810;8.818;2023-05-20T04:43:33;14.60;70.80
50548;DHT22;38013;48.810;8.818;2023-05-20T04:46:00;14.60;70.10
50548;DHT22;38013;48.810;8.818;2023-05-20T04:48:32;14.60;70.00
50548;DHT22;38013;48.810;8.818;2023-05-20T04:50:59;14.60;69.90
50548;DHT22;38013;48.810;8.818;2023-05-20T04:53:26;14.70;69.90
50548;DHT22;38013;48.810;8.818;2023-05-20T04:55:56;14.70;69.70
50548;DHT22;38013;48.810;8.818;2023-05-20T04:58:23;14.70;69.80
50548;DHT22;38013;48.810;8.818;2023-05-20T05:00:50;14.60;69.70
50548;DHT22;38013;48.810;8.818;2023-05-20T05:03:18;14.60;69.70
50548;DHT22;38013;48.810;8.818;2023-05-20T05:05:45;14.60;69.70
50548;DHT22;38013;48.810;8.818;2023-05-20T05:08:13;14.60;69.80
50548;DHT22;38013;48.810;8.818;2023-05-20T05:10:46;14.60;69.80
50548;DHT22;38013;48.810;8.818;2023-05-20T05:13:13;14.60;69.90
50548;DHT22;38013;48.810;8.818;2023-05-20T05:15:40;14.60;69.90
50548;DHT22;38013;48.810;8.818;2023-05-20T05:18:07;14.60;70.00
50548;DHT22;38013;48.810;8.818;2023-05-20T05:20:35;14.50;70.00
50548;DHT22;38013;48.810;8.818;2023-05-20T05:23:02;14.50;70.10
50548;DHT22;38013;48.810;8.818;2023-05-20T05:25:29;14.50;70.20
50548;DHT22;38013;48.810;8.818;2023-05-20T05:27:58;14.50;70.30
50548;DHT22;38013;48.810;8.818;2023-05-20T05:30:25;14.50;70.40
50548;DHT22;38013;48.810;8.818;2023-05-20T05:32:52;14.50;70.50
50548;DHT22;38013;48.810;8.818;2023-05-20T05:35:20;14.60;70.80
50548;DHT22;38013;48.810;8.818;2023-05-20T05:37:49;14.60;70.90
50548;DHT22;38013;48.810;8.818;2023-05-20T05:40:18;14.70;71.10
50548;DHT22;38013;48.810;8.818;2023-05-20T05:42:47;14.70;71.20
50548;DHT22;38013;48.810;8.818;2023-05-20T05:45:13;14.80;71.20
50548;DHT22;38013;48.810;8.818;2023-05-20T05:47:41;14.80;71.10
50548;DHT22;38013;48.810;8.818;2023-05-20T05:50:08;14.90;71.20
50548;DHT22;38013;48.810;8.818;2023-05-20T05:52:36;15.00;71.20
50548;DHT22;38013;48.810;8.818;2023-05-20T05:55:08;15.10;71.00
50548;DHT22;38013;48.810;8.818;2023-05-20T05:57:35;15.20;70.90
50548;DHT22;38013;48.810;8.818;2023-05-20T06:00:03;15.30;70.80
50548;DHT22;38013;48.810;8.818;2023-05-20T06:02:43;15.40;70.70
50548;DHT22;38013;48.810;8.818;2023-05-20T06:05:15;15.40;70.60
50548;DHT22;38013;48.810;8.818;2023-05-20T06:07:43;15.50;70.60
50548;DHT22;38013;48.810;8.818;2023-05-20T06:10:10;15.60;70.50
50548;DHT22;38013;48.810;8.818;2023-05-20T06:12:37;15.70;70.40
50548;DHT22;38013;48.810;8.818;2023-05-20T06:15:05;15.80;70.40
50548;DHT22;38013;48.810;8.818;2023-05-20T06:17:33;15.80;70.00
50548;DHT22;38013;48.810;8.818;2023-05-20T06:20:00;15.90;70.60
50548;DHT22;38013;48.810;8.818;2023-05-20T06:22:27;16.00;70.00
50548;DHT22;38013;48.810;8.818;2023-05-20T06:24:55;16.10;69.80
50548;DHT22;38013;48.810;8.818;2023-05-20T06:27:26;16.20;69.70
50548;DHT22;38013;48.810;8.818;2023-05-20T06:29:53;16.30;69.60
50548;DHT22;38013;48.810;8.818;2023-05-20T06:32:20;16.30;69.40
50548;DHT22;38013;48.810;8.818;2023-05-20T06:34:47;16.40;69.30
50548;DHT22;38013;48.810;8.818;2023-05-20T06:37:16;16.50;69.30
50548;DHT22;38013;48.810;8.818;2023-05-20T06:39:43;16.60;69.30
50548;DHT22;38013;48.810;8.818;2023-05-20T06:42:10;16.60;69.00
50548;DHT22;38013;48.810;8.818;2023-05-20T06:44:42;16.80;69.00
50548;DHT22;38013;48.810;8.818;2023-05-20T06:47:19;16.80;68.70
50548;DHT22;38013;48.810;8.818;2023-05-20T06:49:48;16.90;68.50
50548;DHT22;38013;48.810;8.818;2023-05-20T06:52:15;17.00;68.10
50548;DHT22;38013;48.810;8.818;2023-05-20T06:54:44;17.10;68.10
50548;DHT22;38013;48.810;8.818;2023-05-20T06:57:12;17.10;68.20
50548;DHT22;38013;48.810;8.818;2023-05-20T06:59:39;17.30;68.60
50548;DHT22;38013;48.810;8.818;2023-05-20T07:02:07;17.30;67.70
50548;DHT22;38013;48.810;8.818;2023-05-20T07:04:34;17.40;67.60
50548;DHT22;38013;48.810;8.818;2023-05-20T07:07:01;17.50;67.40
50548;DHT22;38013;48.810;8.818;2023-05-20T07:09:28;17.60;67.20
50548;DHT22;38013;48.810;8.818;2023-05-20T07:11:55;17.70;66.90
50548;DHT22;38013;48.810;8.818;2023-05-20T07:14:22;17.80;66.80
50548;DHT22;38013;48.810;8.818;2023-05-20T07:16:49;17.80;66.70
50548;DHT22;38013;48.810;8.818;2023-05-20T07:19:16;17.90;66.60
50548;DHT22;38013;48.810;8.818;2023-05-20T07:21:44;17.90;66.50
50548;DHT22;38013;48.810;8.818;2023-05-20T07:24:29;18.00;66.30
50548;DHT22;38013;48.810;8.818;2023-05-20T07:26:56;18.10;66.00
50548;DHT22;38013;48.810;8.818;2023-05-20T07:29:23;18.10;66.00
50548;DHT22;38013;48.810;8.818;2023-05-20T07:31:50;18.20;65.80
50548;DHT22;38013;48.810;8.818;2023-05-20T07:34:17;18.20;65.50
50548;DHT22;38013;48.810;8.818;2023-05-20T07:36:45;18.20;65.60
50548;DHT22;38013;48.810;8.818;2023-05-20T07:39:13;18.30;65.60
50548;DHT22;38013;48.810;8.818;2023-05-20T07:41:41;18.30;65.40
50548;DHT22;38013;48.810;8.818;2023-05-20T07:44:08;18.40;65.30
50548;DHT22;38013;48.810;8.818;2023-05-20T07:46:40;18.50;65.10
50548;DHT22;38013;48.810;8.818;2023-05-20T07:49:09;18.50;65.00
50548;DHT22;38013;48.810;8.818;2023-05-20T07:51:38;18.60;65.00
50548;DHT22;38013;48.810;8.818;2023-05-20T07:54:05;18.70;64.90
50548;DHT22;38013;48.810;8.818;2023-05-20T07:56:32;18.70;64.70
50548;DHT22;38013;48.810;8.818;2023-05-20T07:59:00;18.80;64.40
50548;DHT22;38013;48.810;8.818;2023-05-20T08:01:32;18.80;64.40
50548;DHT22;38013;48.810;8.818;2023-05-20T08:04:01;18.80;64.40
50548;DHT22;38013;48.810;8.818;2023-05-20T08:06:29;18.90;64.40
50548;DHT22;38013;48.810;8.818;2023-05-20T08:08:58;19.00;64.50
50548;DHT22;38013;48.810;8.818;2023-05-20T08:11:30;19.00;64.40
50548;DHT22;38013;48.810;8.818;2023-05-20T08:13:58;19.10;64.30
50548;DHT22;38013;48.810;8.818;2023-05-20T08:16:28;19.20;64.10
50548;DHT22;38013;48.810;8.818;2023-05-20T08:18:55;19.20;63.80
50548;DHT22;38013;48.810;8.818;2023-05-20T08:21:22;19.30;63.70
50548;DHT22;38013;48.810;8.818;2023-05-20T08:23:49;19.40;63.50
50548;DHT22;38013;48.810;8.818;2023-05-20T08:26:16;19.40;63.00
50548;DHT22;38013;48.810;8.818;2023-05-20T08:28:43;19.50;63.10
50548;DHT22;38013;48.810;8.818;2023-05-20T08:31:11;19.50;63.10
50548;DHT22;38013;48.810;8.818;2023-05-20T08:33:39;19.50;63.30
50548;DHT22;38013;48.810;8.818;2023-05-20T08:36:06;19.60;63.30
50548;DHT22;38013;48.810;8.818;2023-05-20T08:38:33;19.60;62.70
50548;DHT22;38013;48.810;8.818;2023-05-20T08:41:01;19.60;62.80
50548;DHT22;38013;48.810;8.818;2023-05-20T08:43:30;19.70;63.10
50548;DHT22;38013;48.810;8.818;2023-05-20T08:45:59;19.70;63.10
50548;DHT22;38013;48.810;8.818;2023-05-20T08:48:29;19.80;62.90
50548;DHT22;38013;48.810;8.818;2023-05-20T08:50:57;19.90;62.90
50548;DHT22;38013;48.810;8.818;2023-05-20T08:53:25;19.90;62.50
50548;DHT22;38013;48.810;8.818;2023-05-20T08:55:54;19.90;62.40
50548;DHT22;38013;48.810;8.818;2023-05-20T08:58:27;20.00;62.40
50548;DHT22;38013;48.810;8.818;2023-05-20T09:00:55;20.00;62.70
50548;DHT22;38013;48.810;8.818;2023-05-20T09:03:22;20.00;62.40
50548;DHT22;38013;48.810;8.818;2023-05-20T09:06:01;20.10;62.50
50548;DHT22;38013;48.810;8.818;2023-05-20T09:08:32;20.10;62.20
50548;DHT22;38013;48.810;8.818;2023-05-20T09:10:59;20.10;62.20
50548;DHT22;38013;48.810;8.818;2023-05-20T09:13:28;20.10;62.20
50548;DHT22;38013;48.810;8.818;2023-05-20T09:15:56;20.20;62.20
50548;DHT22;38013;48.810;8.818;2023-05-20T09:18:25;20.30;62.50
50548;DHT22;38013;48.810;8.818;2023-05-20T09:20:52;20.30;62.20
50548;DHT22;38013;48.810;8.818;2023-05-20T09:23:20;20.40;61.70
50548;DHT22;38013;48.810;8.818;2023-05-20T09:25:51;20.40;61.60
50548;DHT22;38013;48.810;8.818;2023-05-20T09:28:21;20.40;61.50
50548;DHT22;38013;48.810;8.818;2023-05-20T09:30:55;20.50;62.30
50548;DHT22;38013;48.810;8.818;2023-05-20T09:33:29;20.60;62.30
50548;DHT22;38013;48.810;8.818;2023-05-20T09:36:06;20.60;61.50
50548;DHT22;38013;48.810;8.818;2023-05-20T09:38:36;20.70;61.70
50548;DHT22;38013;48.810;8.818;2023-05-20T09:41:10;20.80;61.30
50548;DHT22;38013;48.810;8.818;2023-05-20T09:43:43;21.00;61.80
50548;DHT22;38013;48.810;8.818;2023-05-20T09:46:10;21.10;60.80
50548;DHT22;38013;48.810;8.818;2023-05-20T09:48:37;21.20;60.80
50548;DHT22;38013;48.810;8.818;2023-05-20T09:51:05;21.20;60.60
50548;DHT22;38013;48.810;8.818;2023-05-20T09:53:33;21.30;60.20
50548;DHT22;38013;48.810;8.818;2023-05-20T09:56:00;21.40;59.70
50548;DHT22;38013;48.810;8.818;2023-05-20T09:58:28;21.50;59.30
50548;DHT22;38013;48.810;8.818;2023-05-20T10:00:57;21.50;59.20
50548;DHT22;38013;48.810;8.818;2023-05-20T10:03:24;21.60;59.80
50548;DHT22;38013;48.810;8.818;2023-05-20T10:06:42;21.80;58.70
50548;DHT22;38013;48.810;8.818;2023-05-20T10:11:57;21.80;58.10
50548;DHT22;38013;48.810;8.818;2023-05-20T10:15:36;21.90;58.00
50548;DHT22;38013;48.810;8.818;2023-05-20T10:20:48;22.00;57.20
50548;DHT22;38013;48.810;8.818;2023-05-20T10:23:23;22.10;56.90
50548;DHT22;38013;48.810;8.818;2023-05-20T10:25:55;22.10;57.50
50548;DHT22;38013;48.810;8.818;2023-05-20T10:28:30;22.20;57.90
50548;DHT22;38013;48.810;8.818;2023-05-20T10:31:00;22.40;57.20
50548;DHT22;38013;48.810;8.818;2023-05-20T10:33:28;22.60;57.40
50548;DHT22;38013;48.810;8.818;2023-05-20T10:35:59;22.70;57.00
50548;DHT22;38013;48.810;8.818;2023-05-20T10:38:26;22.90;56.30
50548;DHT22;38013;48.810;8.818;2023-05-20T10:40:53;23.00;56.20
50548;DHT22;38013;48.810;8.818;2023-05-20T10:43:27;23.20;55.80
50548;DHT22;38013;48.810;8.818;2023-05-20T10:45:55;23.30;54.60
50548;DHT22;38013;48.810;8.818;2023-05-20T10:48:28;23.40;55.20
50548;DHT22;38013;48.810;8.818;2023-05-20T10:51:01;23.50;54.30
50548;DHT22;38013;48.810;8.818;2023-05-20T10:53:39;23.70;54.20
50548;DHT22;38013;48.810;8.818;2023-05-20T10:56:19;23.80;53.70
50548;DHT22;38013;48.810;8.818;2023-05-20T10:58:48;23.80;53.10
50548;DHT22;38013;48.810;8.818;2023-05-20T11:01:15;23.90;53.40
50548;DHT22;38013;48.810;8.818;2023-05-20T11:03:43;23.90;52.90
50548;DHT22;38013;48.810;8.818;2023-05-20T11:06:17;24.00;52.70
50548;DHT22;38013;48.810;8.818;2023-05-20T11:08:45;24.00;52.30
50548;DHT22;38013;48.810;8.818;2023-05-20T11:11:13;24.00;52.90
50548;DHT22;38013;48.810;8.818;2023-05-20T11:13:41;24.00;52.80
50548;DHT22;38013;48.810;8.818;2023-05-20T11:16:08;24.00;52.90
50548;DHT22;38013;48.810;8.818;2023-05-20T11:18:35;24.00;53.30
50548;DHT22;38013;48.810;8.818;2023-05-20T11:21:02;24.00;53.40
50548;DHT22;38013;48.810;8.818;2023-05-20T11:23:29;23.90;53.30
50548;DHT22;38013;48.810;8.818;2023-05-20T11:25:56;23.90;52.90
50548;DHT22;38013;48.810;8.818;2023-05-20T11:28:24;23.90;52.70
50548;DHT22;38013;48.810;8.818;2023-05-20T11:30:52;23.90;52.60
50548;DHT22;38013;48.810;8.818;2023-05-20T11:33:19;23.80;52.50
50548;DHT22;38013;48.810;8.818;2023-05-20T11:35:51;23.90;53.00
50548;DHT22;38013;48.810;8.818;2023-05-20T11:38:20;23.90;53.80
50548;DHT22;38013;48.810;8.818;2023-05-20T11:40:54;23.90;54.00
50548;DHT22;38013;48.810;8.818;2023-05-20T11:43:22;24.00;53.60
50548;DHT22;38013;48.810;8.818;2023-05-20T11:45:55;24.10;53.90
50548;DHT22;38013;48.810;8.818;2023-05-20T11:48:25;24.20;53.40
50548;DHT22;38013;48.810;8.818;2023-05-20T11:50:54;24.30;53.90
50548;DHT22;38013;48.810;8.818;2023-05-20T11:53:22;24.40;53.90
50548;DHT22;38013;48.810;8.818;2023-05-20T11:55:57;24.60;53.80
50548;DHT22;38013;48.810;8.818;2023-05-20T11:58:26;24.80;53.10
50548;DHT22;38013;48.810;8.818;2023-05-20T12:00:55;24.90;53.20
50548;DHT22;38013;48.810;8.818;2023-05-20T12:03:39;25.10;52.80
50548;DHT22;38013;48.810;8.818;2023-05-20T12:06:06;25.20;52.20
50548;DHT22;38013;48.810;8.818;2023-05-20T12:08:33;25.30;51.70
50548;DHT22;38013;48.810;8.818;2023-05-20T12:11:00;25.30;51.80
50548;DHT22;38013;48.810;8.818;2023-05-20T12:13:27;25.30;51.30
50548;DHT22;38013;48.810;8.818;2023-05-20T12:15:54;25.30;51.20
50548;DHT22;38013;48.810;8.818;2023-05-20T12:18:21;25.30;50.90
50548;DHT22;38013;48.810;8.818;2023-05-20T12:20:48;25.30;50.60
50548;DHT22;38013;48.810;8.818;2023-05-20T12:23:15;25.30;50.90
50548;DHT22;38013;48.810;8.818;2023-05-20T12:25:43;25.30;50.30
50548;DHT22;38013;48.810;8.818;2023-05-20T12:28:12;25.30;50.60
50548;DHT22;38013;48.810;8.818;2023-05-20T12:30:39;25.30;50.80
50548;DHT22;38013;48.810;8.818;2023-05-20T12:33:07;25.30;50.50
50548;DHT22;38013;48.810;8.818;2023-05-20T12:35:42;25.30;50.80
50548;DHT22;38013;48.810;8.818;2023-05-20T12:38:09;25.30;50.80
50548;DHT22;38013;48.810;8.818;2023-05-20T12:40:36;25.30;50.60
50548;DHT22;38013;48.810;8.818;2023-05-20T12:43:04;25.40;50.40
50548;DHT22;38013;48.810;8.818;2023-05-20T12:45:31;25.40;51.00
50548;DHT22;38013;48.810;8.818;2023-05-20T12:47:58;25.60;51.00
50548;DHT22;38013;48.810;8.818;2023-05-20T12:50:26;25.70;50.50
50548;DHT22;38013;48.810;8.818;2023-05-20T12:52:53;25.80;50.70
50548;DHT22;38013;48.810;8.818;2023-05-20T12:55:20;26.00;50.90
50548;DHT22;38013;48.810;8.818;2023-05-20T12:57:47;26.20;51.00
50548;DHT22;38013;48.810;8.818;2023-05-20T13:00:15;26.30;50.00
50548;DHT22;38013;48.810;8.818;2023-05-20T13:02:43;26.50;49.10
50548;DHT22;38013;48.810;8.818;2023-05-20T13:05:10;26.60;49.50
50548;DHT22;38013;48.810;8.818;2023-05-20T13:07:37;26.60;49.10
50548;DHT22;38013;48.810;8.818;2023-05-20T13:10:05;26.70;48.60
50548;DHT22;38013;48.810;8.818;2023-05-20T13:12:34;26.80;49.20
50548;DHT22;38013;48.810;8.818;2023-05-20T13:15:01;26.80;48.30
50548;DHT22;38013;48.810;8.818;2023-05-20T13:17:29;26.80;48.60
50548;DHT22;38013;48.810;8.818;2023-05-20T13:19:56;26.90;48.00
50548;DHT22;38013;48.810;8.818;2023-05-20T13:22:23;26.90;47.90
50548;DHT22;38013;48.810;8.818;2023-05-20T13:24:50;26.90;48.30
50548;DHT22;38013;48.810;8.818;2023-05-20T13:27:17;26.90;48.00
50548;DHT22;38013;48.810;8.818;2023-05-20T13:29:44;26.90;47.10
50548;DHT22;38013;48.810;8.818;2023-05-20T13:32:11;27.00;46.60
50548;DHT22;38013;48.810;8.818;2023-05-20T13:34:38;27.10;47.60
50548;DHT22;38013;48.810;8.818;2023-05-20T13:37:07;27.10;47.80
50548;DHT22;38013;48.810;8.818;2023-05-20T13:39:34;27.10;48.10
50548;DHT22;38013;48.810;8.818;2023-05-20T13:42:02;27.00;47.50
50548;DHT22;38013;48.810;8.818;2023-05-20T13:44:29;27.00;47.80
50548;DHT22;38013;48.810;8.818;2023-05-20T13:46:58;27.00;47.70
50548;DHT22;38013;48.810;8.818;2023-05-20T13:49:25;27.00;47.70
50548;DHT22;38013;48.810;8.818;2023-05-20T13:51:52;26.90;47.50
50548;DHT22;38013;48.810;8.818;2023-05-20T13:54:20;26.90;47.50
50548;DHT22;38013;48.810;8.818;2023-05-20T13:56:47;26.90;47.50
50548;DHT22;38013;48.810;8.818;2023-05-20T13:59:14;26.90;48.40
50548;DHT22;38013;48.810;8.818;2023-05-20T14:01:42;27.00;48.00
50548;DHT22;38013;48.810;8.818;2023-05-20T14:04:11;27.10;48.20
50548;DHT22;38013;48.810;8.818;2023-05-20T14:06:38;27.30;48.40
50548;DHT22;38013;48.810;8.818;2023-05-20T14:09:06;27.40;48.10
50548;DHT22;38013;48.810;8.818;2023-05-20T14:11:34;27.60;46.90
50548;DHT22;38013;48.810;8.818;2023-05-20T14:14:01;27.80;47.10
50548;DHT22;38013;48.810;8.818;2023-05-20T14:16:28;28.00;47.40
50548;DHT22;38013;48.810;8.818;2023-05-20T14:18:56;28.10;47.40
50548;DHT22;38013;48.810;8.818;2023-05-20T14:21:23;28.30;47.10
50548;DHT22;38013;48.810;8.818;2023-05-20T14:23:50;28.40;45.90
50548;DHT22;38013;48.810;8.818;2023-05-20T14:26:17;28.40;45.00
50548;DHT22;38013;48.810;8.818;2023-05-20T14:28:44;28.50;45.00
50548;DHT22;38013;48.810;8.818;2023-05-20T14:31:11;28.40;44.80
50548;DHT22;38013;48.810;8.818;2023-05-20T14:33:38;28.30;44.60
50548;DHT22;38013;48.810;8.818;2023-05-20T14:36:05;28.30;44.80
50548;DHT22;38013;48.810;8.818;2023-05-20T14:38:32;28.20;45.20
50548;DHT22;38013;48.810;8.818;2023-05-20T14:40:59;28.10;44.60
50548;DHT22;38013;48.810;8.818;2023-05-20T14:43:26;28.00;44.70
50548;DHT22;38013;48.810;8.818;2023-05-20T14:45:53;27.80;44.50
50548;DHT22;38013;48.810;8.818;2023-05-20T14:48:20;27.70;45.20
50548;DHT22;38013;48.810;8.818;2023-05-20T14:50:48;27.70;45.40
50548;DHT22;38013;48.810;8.818;2023-05-20T14:53:16;27.60;45.40
50548;DHT22;38013;48.810;8.818;2023-05-20T14:55:43;27.50;45.30
50548;DHT22;38013;48.810;8.818;2023-05-20T14:58:10;27.50;45.60
50548;DHT22;38013;48.810;8.818;2023-05-20T15:00:38;27.50;45.70
50548;DHT22;38013;48.810;8.818;2023-05-20T15:03:05;27.50;45.80
50548;DHT22;38013;48.810;8.818;2023-05-20T15:05:32;27.40;46.10
50548;DHT22;38013;48.810;8.818;2023-05-20T15:07:59;27.40;45.90
50548;DHT22;38013;48.810;8.818;2023-05-20T15:10:26;27.40;45.60
50548;DHT22;38013;48.810;8.818;2023-05-20T15:12:53;27.40;46.00
50548;DHT22;38013;48.810;8.818;2023-05-20T15:15:20;27.40;46.10
50548;DHT22;38013;48.810;8.818;2023-05-20T15:17:47;27.40;45.60
50548;DHT22;38013;48.810;8.818;2023-05-20T15:20:14;27.30;45.60
50548;DHT22;38013;48.810;8.818;2023-05-20T15:22:42;27.30;45.40
50548;DHT22;38013;48.810;8.818;2023-05-20T15:25:11;27.30;45.10
50548;DHT22;38013;48.810;8.818;2023-05-20T15:27:39;27.20;46.10
50548;DHT22;38013;48.810;8.818;2023-05-20T15:30:08;27.20;45.90
50548;DHT22;38013;48.810;8.818;2023-05-20T15:32:35;27.10;45.90
50548;DHT22;38013;48.810;8.818;2023-05-20T15:35:03;27.10;45.00
50548;DHT22;38013;48.810;8.818;2023-05-20T15:37:30;27.00;44.80
50548;DHT22;38013;48.810;8.818;2023-05-20T15:39:56;26.90;44.70
50548;DHT22;38013;48.810;8.818;2023-05-20T15:42:23;26.80;45.20
50548;DHT22;38013;48.810;8.818;2023-05-20T15:44:51;26.80;45.30